sensor_id;sensor_type;location;lat;lon;timestamp;P1;durP1;ratioP1;P2;durP2;ratioP2
13374;SDS011;6756;51.354;15.754;2023-04-24T00:03:21;13.37;;;9.13;;
13374;SDS011;6756;51.354;15.754;2023-04-24T00:08:10;9.53;;;7.03;;
13374;SDS011;6756;51.354;15.754;2023-04-24T00:12:17;6.30;;;5.13;;
13374;SDS011;6756;51.354;15.754;2023-04-24T00:20:57;6.93;;;5.60;;
13374;SDS011;6756;51.354;15.754;2023-04-24T00:38:25;6.63;;;5.20;;
13374;SDS011;6756;51.354;15.754;2023-04-24T00:42:53;5.87;;;4.50;;
13374;SDS011;6756;51.354;15.754;2023-04-24T00:51:38;6.53;;;5.27;;
13374;SDS011;6756;51.354;15.754;2023-04-24T00:55:47;7.37;;;5.90;;
13374;SDS011;6756;51.354;15.754;2023-04-24T01:00:23;8.50;;;6.73;;
13374;SDS011;6756;51.354;15.754;2023-04-24T01:09:33;7.67;;;5.70;;
13374;SDS011;6756;51.354;15.754;2023-04-24T01:19:04;8.53;;;5.70;;
13374;SDS011;6756;51.354;15.754;2023-04-24T01:23:12;11.83;;;7.47;;
13374;SDS011;6756;51.354;15.754;2023-04-24T01:27:26;11.73;;;8.27;;
13374;SDS011;6756;51.354;15.754;2023-04-24T01:31:28;10.90;;;7.53;;
13374;SDS011;6756;51.354;15.754;2023-04-24T01:35:50;12.37;;;7.87;;
13374;SDS011;6756;51.354;15.754;2023-04-24T01:39:54;18.70;;;10.50;;
13374;SDS011;6756;51.354;15.754;2023-04-24T01:43:56;18.97;;;11.70;;
13374;SDS011;6756;51.354;15.754;2023-04-24T01:48:07;27.47;;;18.47;;
13374;SDS011;6756;51.354;15.754;2023-04-24T01:52:26;26.07;;;15.37;;
13374;SDS011;6756;51.354;15.754;2023-04-24T01:56:45;17.67;;;10.40;;
13374;SDS011;6756;51.354;15.754;2023-04-24T02:01:01;10.00;;;7.37;;
13374;SDS011;6756;51.354;15.754;2023-04-24T02:20:16;15.37;;;10.00;;
13374;SDS011;6756;51.354;15.754;2023-04-24T02:24:29;14.87;;;9.43;;
13374;SDS011;6756;51.354;15.754;2023-04-24T02:28:41;17.63;;;10.90;;
13374;SDS011;6756;51.354;15.754;2023-04-24T02:34:01;15.90;;;10.37;;
13374;SDS011;6756;51.354;15.754;2023-04-24T02:42:40;15.07;;;9.93;;
13374;SDS011;6756;51.354;15.754;2023-04-24T02:47:17;15.07;;;10.37;;
13374;SDS011;6756;51.354;15.754;2023-04-24T02:51:26;17.83;;;11.50;;
13374;SDS011;6756;51.354;15.754;2023-04-24T02:55:44;14.43;;;10.40;;
13374;SDS011;6756;51.354;15.754;2023-04-24T03:00:15;11.07;;;8.93;;
13374;SDS011;6756;51.354;15.754;2023-04-24T03:04:17;13.27;;;8.70;;
13374;SDS011;6756;51.354;15.754;2023-04-24T03:08:41;15.60;;;11.77;;
13374;SDS011;6756;51.354;15.754;2023-04-24T03:12:54;15.97;;;11.00;;
13374;SDS011;6756;51.354;15.754;2023-04-24T03:21:44;11.23;;;8.93;;
13374;SDS011;6756;51.354;15.754;2023-04-24T03:30:34;10.03;;;7.03;;
13374;SDS011;6756;51.354;15.754;2023-04-24T03:34:39;10.67;;;6.70;;
13374;SDS011;6756;51.354;15.754;2023-04-24T03:43:39;9.83;;;7.00;;
13374;SDS011;6756;51.354;15.754;2023-04-24T03:47:56;9.40;;;7.10;;
13374;SDS011;6756;51.354;15.754;2023-04-24T03:52:13;8.00;;;6.83;;
13374;SDS011;6756;51.354;15.754;2023-04-24T03:56:19;13.30;;;8.37;;
13374;SDS011;6756;51.354;15.754;2023-04-24T04:00:21;11.37;;;7.60;;
13374;SDS011;6756;51.354;15.754;2023-04-24T04:04:28;22.03;;;13.67;;
13374;SDS011;6756;51.354;15.754;2023-04-24T04:08:45;40.67;;;26.60;;
13374;SDS011;6756;51.354;15.754;2023-04-24T04:12:57;76.97;;;55.17;;
13374;SDS011;6756;51.354;15.754;2023-04-24T04:17:11;41.30;;;26.77;;
13374;SDS011;6756;51.354;15.754;2023-04-24T04:21:15;20.07;;;14.77;;
13374;SDS011;6756;51.354;15.754;2023-04-24T04:25:24;14.50;;;9.57;;
13374;SDS011;6756;51.354;15.754;2023-04-24T04:29:38;9.93;;;6.50;;
13374;SDS011;6756;51.354;15.754;2023-04-24T04:33:53;7.77;;;6.00;;
13374;SDS011;6756;51.354;15.754;2023-04-24T04:37:55;7.07;;;5.83;;
13374;SDS011;6756;51.354;15.754;2023-04-24T04:42:17;6.43;;;4.57;;
13374;SDS011;6756;51.354;15.754;2023-04-24T04:46:19;5.30;;;4.57;;
13374;SDS011;6756;51.354;15.754;2023-04-24T04:55:13;4.97;;;3.70;;
13374;SDS011;6756;51.354;15.754;2023-04-24T04:59:41;6.87;;;3.37;;
13374;SDS011;6756;51.354;15.754;2023-04-24T05:03:58;3.73;;;2.90;;
13374;SDS011;6756;51.354;15.754;2023-04-24T05:08:00;3.73;;;2.40;;
13374;SDS011;6756;51.354;15.754;2023-04-24T05:12:16;2.67;;;2.40;;
13374;SDS011;6756;51.354;15.754;2023-04-24T05:16:26;3.47;;;2.43;;
13374;SDS011;6756;51.354;15.754;2023-04-24T05:20:30;4.30;;;2.50;;
13374;SDS011;6756;51.354;15.754;2023-04-24T05:24:35;4.80;;;3.13;;
13374;SDS011;6756;51.354;15.754;2023-04-24T05:28:58;5.10;;;2.77;;
13374;SDS011;6756;51.354;15.754;2023-04-24T05:33:00;4.47;;;3.30;;
13374;SDS011;6756;51.354;15.754;2023-04-24T05:37:13;4.87;;;2.97;;
13374;SDS011;6756;51.354;15.754;2023-04-24T05:41:23;4.40;;;3.37;;
13374;SDS011;6756;51.354;15.754;2023-04-24T05:45:47;5.33;;;2.67;;
13374;SDS011;6756;51.354;15.754;2023-04-24T05:50:08;3.80;;;2.43;;
13374;SDS011;6756;51.354;15.754;2023-04-24T05:54:20;7.83;;;2.80;;
13374;SDS011;6756;51.354;15.754;2023-04-24T05:58:38;8.03;;;2.37;;
13374;SDS011;6756;51.354;15.754;2023-04-24T06:03:21;3.27;;;2.50;;
13374;SDS011;6756;51.354;15.754;2023-04-24T06:12:34;5.13;;;2.77;;
13374;SDS011;6756;51.354;15.754;2023-04-24T06:16:46;3.67;;;2.70;;
13374;SDS011;6756;51.354;15.754;2023-04-24T06:21:13;2.97;;;2.67;;
13374;SDS011;6756;51.354;15.754;2023-04-24T06:25:31;3.97;;;3.30;;
13374;SDS011;6756;51.354;15.754;2023-04-24T06:29:59;3.73;;;2.30;;
13374;SDS011;6756;51.354;15.754;2023-04-24T06:34:16;3.73;;;2.20;;
13374;SDS011;6756;51.354;15.754;2023-04-24T06:38:42;4.10;;;2.53;;
13374;SDS011;6756;51.354;15.754;2023-04-24T06:43:08;2.63;;;2.30;;
13374;SDS011;6756;51.354;15.754;2023-04-24T06:53:04;3.23;;;1.80;;
13374;SDS011;6756;51.354;15.754;2023-04-24T07:22:58;1.73;;;1.20;;
13374;SDS011;6756;51.354;15.754;2023-04-24T07:33:23;2.63;;;2.23;;
13374;SDS011;6756;51.354;15.754;2023-04-24T07:37:33;2.87;;;1.80;;
13374;SDS011;6756;51.354;15.754;2023-04-24T07:51:37;5.50;;;1.90;;
13374;SDS011;6756;51.354;15.754;2023-04-24T07:56:59;3.03;;;2.10;;
13374;SDS011;6756;51.354;15.754;2023-04-24T08:06:49;3.37;;;1.70;;
13374;SDS011;6756;51.354;15.754;2023-04-24T08:11:45;1.93;;;1.57;;
13374;SDS011;6756;51.354;15.754;2023-04-24T08:30:42;4.43;;;1.47;;
13374;SDS011;6756;51.354;15.754;2023-04-24T08:49:35;4.00;;;1.50;;
13374;SDS011;6756;51.354;15.754;2023-04-24T08:54:00;2.33;;;1.17;;
13374;SDS011;6756;51.354;15.754;2023-04-24T08:58:25;2.00;;;1.47;;
13374;SDS011;6756;51.354;15.754;2023-04-24T09:07:59;1.93;;;1.20;;
13374;SDS011;6756;51.354;15.754;2023-04-24T09:12:35;1.80;;;1.50;;
13374;SDS011;6756;51.354;15.754;2023-04-24T09:21:32;2.30;;;1.57;;
13374;SDS011;6756;51.354;15.754;2023-04-24T09:26:10;2.27;;;1.30;;
13374;SDS011;6756;51.354;15.754;2023-04-24T09:30:40;1.67;;;1.40;;
13374;SDS011;6756;51.354;15.754;2023-04-24T09:35:07;2.53;;;1.10;;
13374;SDS011;6756;51.354;15.754;2023-04-24T09:44:58;2.77;;;2.13;;
13374;SDS011;6756;51.354;15.754;2023-04-24T09:54:28;2.70;;;1.60;;
13374;SDS011;6756;51.354;15.754;2023-04-24T10:03:47;1.87;;;0.90;;
13374;SDS011;6756;51.354;15.754;2023-04-24T10:08:18;2.43;;;1.13;;
13374;SDS011;6756;51.354;15.754;2023-04-24T10:12:35;1.27;;;0.80;;
13374;SDS011;6756;51.354;15.754;2023-04-24T10:16:56;1.97;;;1.20;;
13374;SDS011;6756;51.354;15.754;2023-04-24T10:21:06;4.33;;;0.90;;
13374;SDS011;6756;51.354;15.754;2023-04-24T10:25:35;1.03;;;0.90;;
13374;SDS011;6756;51.354;15.754;2023-04-24T10:29:45;1.93;;;0.97;;
13374;SDS011;6756;51.354;15.754;2023-04-24T10:34:15;0.80;;;0.77;;
13374;SDS011;6756;51.354;15.754;2023-04-24T10:38:34;2.27;;;0.83;;
13374;SDS011;6756;51.354;15.754;2023-04-24T10:42:51;1.50;;;0.87;;
13374;SDS011;6756;51.354;15.754;2023-04-24T10:47:14;3.47;;;0.93;;
13374;SDS011;6756;51.354;15.754;2023-04-24T10:52:00;1.33;;;0.53;;
13374;SDS011;6756;51.354;15.754;2023-04-24T10:56:16;1.60;;;0.60;;
13374;SDS011;6756;51.354;15.754;2023-04-24T11:00:34;3.47;;;0.90;;
13374;SDS011;6756;51.354;15.754;2023-04-24T11:05:02;1.00;;;0.77;;
13374;SDS011;6756;51.354;15.754;2023-04-24T11:14:16;1.90;;;0.87;;
13374;SDS011;6756;51.354;15.754;2023-04-24T11:18:36;1.87;;;1.07;;
13374;SDS011;6756;51.354;15.754;2023-04-24T11:23:03;2.40;;;1.23;;
13374;SDS011;6756;51.354;15.754;2023-04-24T11:27:19;1.83;;;1.13;;
13374;SDS011;6756;51.354;15.754;2023-04-24T11:31:39;2.90;;;1.13;;
13374;SDS011;6756;51.354;15.754;2023-04-24T11:35:48;1.77;;;1.37;;
13374;SDS011;6756;51.354;15.754;2023-04-24T11:45:21;1.53;;;1.07;;
13374;SDS011;6756;51.354;15.754;2023-04-24T11:49:36;1.50;;;1.30;;
13374;SDS011;6756;51.354;15.754;2023-04-24T11:53:37;1.70;;;1.30;;
13374;SDS011;6756;51.354;15.754;2023-04-24T11:58:05;1.77;;;1.60;;
13374;SDS011;6756;51.354;15.754;2023-04-24T12:02:33;1.80;;;1.07;;
13374;SDS011;6756;51.354;15.754;2023-04-24T12:06:37;1.70;;;1.20;;
13374;SDS011;6756;51.354;15.754;2023-04-24T12:10:56;1.93;;;1.40;;
13374;SDS011;6756;51.354;15.754;2023-04-24T12:20:29;1.40;;;1.20;;
13374;SDS011;6756;51.354;15.754;2023-04-24T12:25:00;1.57;;;1.23;;
13374;SDS011;6756;51.354;15.754;2023-04-24T12:29:36;2.13;;;1.20;;
13374;SDS011;6756;51.354;15.754;2023-04-24T12:39:06;1.87;;;1.23;;
13374;SDS011;6756;51.354;15.754;2023-04-24T12:55:06;2.63;;;1.30;;
13374;SDS011;6756;51.354;15.754;2023-04-24T13:03:58;2.47;;;1.20;;
13374;SDS011;6756;51.354;15.754;2023-04-24T13:08:08;2.07;;;1.30;;
13374;SDS011;6756;51.354;15.754;2023-04-24T13:12:18;3.37;;;1.40;;
13374;SDS011;6756;51.354;15.754;2023-04-24T13:16:43;3.50;;;1.30;;
13374;SDS011;6756;51.354;15.754;2023-04-24T13:21:05;2.63;;;1.83;;
13374;SDS011;6756;51.354;15.754;2023-04-24T13:34:51;1.80;;;1.53;;
13374;SDS011;6756;51.354;15.754;2023-04-24T13:38:55;1.40;;;1.17;;
13374;SDS011;6756;51.354;15.754;2023-04-24T13:42:59;1.30;;;1.20;;
13374;SDS011;6756;51.354;15.754;2023-04-24T13:47:00;2.40;;;1.67;;
13374;SDS011;6756;51.354;15.754;2023-04-24T13:51:23;1.77;;;1.20;;
13374;SDS011;6756;51.354;15.754;2023-04-24T13:55:28;2.63;;;1.40;;
13374;SDS011;6756;51.354;15.754;2023-04-24T13:59:41;2.70;;;1.10;;
13374;SDS011;6756;51.354;15.754;2023-04-24T14:03:51;1.77;;;1.17;;
13374;SDS011;6756;51.354;15.754;2023-04-24T14:08:08;0.87;;;0.87;;
13374;SDS011;6756;51.354;15.754;2023-04-24T14:16:50;3.40;;;1.00;;
13374;SDS011;6756;51.354;15.754;2023-04-24T14:21:09;1.20;;;1.00;;
13374;SDS011;6756;51.354;15.754;2023-04-24T14:25:21;1.40;;;1.10;;
13374;SDS011;6756;51.354;15.754;2023-04-24T14:29:28;1.50;;;1.10;;
13374;SDS011;6756;51.354;15.754;2023-04-24T14:33:52;2.20;;;1.93;;
13374;SDS011;6756;51.354;15.754;2023-04-24T14:38:16;3.20;;;2.47;;
13374;SDS011;6756;51.354;15.754;2023-04-24T14:43:06;3.93;;;2.50;;
13374;SDS011;6756;51.354;15.754;2023-04-24T14:47:12;2.60;;;2.20;;
13374;SDS011;6756;51.354;15.754;2023-04-24T14:51:22;3.33;;;1.97;;
13374;SDS011;6756;51.354;15.754;2023-04-24T15:05:26;2.70;;;1.97;;
13374;SDS011;6756;51.354;15.754;2023-04-24T15:14:25;2.47;;;1.90;;
13374;SDS011;6756;51.354;15.754;2023-04-24T15:18:41;2.10;;;1.90;;
13374;SDS011;6756;51.354;15.754;2023-04-24T15:23:03;2.73;;;2.00;;
13374;SDS011;6756;51.354;15.754;2023-04-24T15:27:57;3.07;;;1.70;;
13374;SDS011;6756;51.354;15.754;2023-04-24T15:32:58;1.97;;;1.63;;
13374;SDS011;6756;51.354;15.754;2023-04-24T15:37:23;3.03;;;2.13;;
13374;SDS011;6756;51.354;15.754;2023-04-24T15:41:31;2.27;;;1.40;;
13374;SDS011;6756;51.354;15.754;2023-04-24T15:45:41;2.17;;;1.50;;
13374;SDS011;6756;51.354;15.754;2023-04-24T15:50:06;2.30;;;2.10;;
13374;SDS011;6756;51.354;15.754;2023-04-24T15:59:11;2.63;;;2.10;;
13374;SDS011;6756;51.354;15.754;2023-04-24T16:03:31;4.33;;;2.30;;
13374;SDS011;6756;51.354;15.754;2023-04-24T16:08:12;2.97;;;2.10;;
13374;SDS011;6756;51.354;15.754;2023-04-24T16:12:22;4.30;;;2.27;;
13374;SDS011;6756;51.354;15.754;2023-04-24T16:21:03;16.87;;;14.10;;
13374;SDS011;6756;51.354;15.754;2023-04-24T16:25:12;22.97;;;16.23;;
13374;SDS011;6756;51.354;15.754;2023-04-24T16:34:10;7.23;;;4.80;;
13374;SDS011;6756;51.354;15.754;2023-04-24T16:39:07;5.93;;;5.17;;
13374;SDS011;6756;51.354;15.754;2023-04-24T16:43:43;7.90;;;5.87;;
13374;SDS011;6756;51.354;15.754;2023-04-24T16:48:07;7.77;;;5.20;;
13374;SDS011;6756;51.354;15.754;2023-04-24T16:52:12;5.70;;;4.40;;
13374;SDS011;6756;51.354;15.754;2023-04-24T16:56:42;4.63;;;3.17;;
13374;SDS011;6756;51.354;15.754;2023-04-24T17:01:04;4.20;;;2.90;;
13374;SDS011;6756;51.354;15.754;2023-04-24T17:05:23;3.13;;;2.47;;
13374;SDS011;6756;51.354;15.754;2023-04-24T17:09:36;4.87;;;3.20;;
13374;SDS011;6756;51.354;15.754;2023-04-24T17:13:43;2.73;;;2.33;;
13374;SDS011;6756;51.354;15.754;2023-04-24T17:22:14;2.83;;;1.93;;
13374;SDS011;6756;51.354;15.754;2023-04-24T17:26:25;4.20;;;2.23;;
13374;SDS011;6756;51.354;15.754;2023-04-24T17:30:56;2.97;;;2.13;;
13374;SDS011;6756;51.354;15.754;2023-04-24T17:35:10;2.67;;;1.97;;
13374;SDS011;6756;51.354;15.754;2023-04-24T17:39:17;3.67;;;2.17;;
13374;SDS011;6756;51.354;15.754;2023-04-24T17:43:40;3.07;;;2.27;;
13374;SDS011;6756;51.354;15.754;2023-04-24T17:47:41;4.73;;;2.77;;
13374;SDS011;6756;51.354;15.754;2023-04-24T17:52:04;3.73;;;2.47;;
13374;SDS011;6756;51.354;15.754;2023-04-24T18:01:20;3.93;;;2.57;;
13374;SDS011;6756;51.354;15.754;2023-04-24T18:05:23;2.80;;;2.07;;
13374;SDS011;6756;51.354;15.754;2023-04-24T18:09:31;2.67;;;2.13;;
13374;SDS011;6756;51.354;15.754;2023-04-24T18:13:42;3.77;;;2.17;;
13374;SDS011;6756;51.354;15.754;2023-04-24T18:17:57;3.20;;;2.50;;
13374;SDS011;6756;51.354;15.754;2023-04-24T18:22:17;3.57;;;2.67;;
13374;SDS011;6756;51.354;15.754;2023-04-24T18:26:28;3.03;;;2.60;;
13374;SDS011;6756;51.354;15.754;2023-04-24T18:30:46;3.63;;;2.83;;
13374;SDS011;6756;51.354;15.754;2023-04-24T18:34:52;4.70;;;3.17;;
13374;SDS011;6756;51.354;15.754;2023-04-24T18:38:59;4.93;;;3.30;;
13374;SDS011;6756;51.354;15.754;2023-04-24T18:43:03;6.27;;;3.70;;
13374;SDS011;6756;51.354;15.754;2023-04-24T18:47:35;6.47;;;3.70;;
13374;SDS011;6756;51.354;15.754;2023-04-24T18:51:38;4.97;;;3.90;;
13374;SDS011;6756;51.354;15.754;2023-04-24T18:56:40;6.97;;;4.50;;
13374;SDS011;6756;51.354;15.754;2023-04-24T19:00:52;6.33;;;4.50;;
13374;SDS011;6756;51.354;15.754;2023-04-24T19:10:17;7.83;;;4.33;;
13374;SDS011;6756;51.354;15.754;2023-04-24T19:14:36;8.17;;;4.50;;
13374;SDS011;6756;51.354;15.754;2023-04-24T19:28:57;3.67;;;2.63;;
13374;SDS011;6756;51.354;15.754;2023-04-24T19:33:26;2.30;;;2.00;;
13374;SDS011;6756;51.354;15.754;2023-04-24T19:37:39;3.00;;;2.00;;
13374;SDS011;6756;51.354;15.754;2023-04-24T19:41:52;3.13;;;2.20;;
13374;SDS011;6756;51.354;15.754;2023-04-24T19:46:04;2.73;;;1.70;;
13374;SDS011;6756;51.354;15.754;2023-04-24T19:50:19;4.63;;;1.70;;
13374;SDS011;6756;51.354;15.754;2023-04-24T19:59:01;2.23;;;1.37;;
13374;SDS011;6756;51.354;15.754;2023-04-24T20:03:20;1.83;;;1.20;;
13374;SDS011;6756;51.354;15.754;2023-04-24T20:07:26;3.33;;;1.30;;
13374;SDS011;6756;51.354;15.754;2023-04-24T20:11:51;1.17;;;1.00;;
13374;SDS011;6756;51.354;15.754;2023-04-24T20:15:56;1.63;;;0.90;;
13374;SDS011;6756;51.354;15.754;2023-04-24T20:20:07;2.03;;;0.80;;
13374;SDS011;6756;51.354;15.754;2023-04-24T20:24:16;2.37;;;0.97;;
13374;SDS011;6756;51.354;15.754;2023-04-24T20:28:43;1.63;;;0.70;;
13374;SDS011;6756;51.354;15.754;2023-04-24T20:37:32;1.17;;;0.80;;
13374;SDS011;6756;51.354;15.754;2023-04-24T20:46:42;1.63;;;0.67;;
13374;SDS011;6756;51.354;15.754;2023-04-24T20:51:27;1.07;;;0.47;;
13374;SDS011;6756;51.354;15.754;2023-04-24T20:55:50;1.33;;;0.47;;
13374;SDS011;6756;51.354;15.754;2023-04-24T21:00:18;0.90;;;0.60;;
13374;SDS011;6756;51.354;15.754;2023-04-24T21:04:28;0.97;;;0.50;;
13374;SDS011;6756;51.354;15.754;2023-04-24T21:12:59;0.67;;;0.37;;
13374;SDS011;6756;51.354;15.754;2023-04-24T21:17:23;0.77;;;0.40;;
13374;SDS011;6756;51.354;15.754;2023-04-24T21:21:39;3.27;;;0.20;;
13374;SDS011;6756;51.354;15.754;2023-04-24T21:25:43;1.80;;;0.50;;
13374;SDS011;6756;51.354;15.754;2023-04-24T21:29:51;1.83;;;0.40;;
13374;SDS011;6756;51.354;15.754;2023-04-24T21:34:37;0.50;;;0.43;;
13374;SDS011;6756;51.354;15.754;2023-04-24T21:43:23;2.03;;;0.47;;
13374;SDS011;6756;51.354;15.754;2023-04-24T21:47:27;0.50;;;0.40;;
13374;SDS011;6756;51.354;15.754;2023-04-24T21:51:39;0.40;;;0.30;;
13374;SDS011;6756;51.354;15.754;2023-04-24T22:05:00;1.50;;;0.40;;
13374;SDS011;6756;51.354;15.754;2023-04-24T22:09:43;1.13;;;0.30;;
13374;SDS011;6756;51.354;15.754;2023-04-24T22:13:44;3.23;;;0.30;;
13374;SDS011;6756;51.354;15.754;2023-04-24T22:17:46;0.90;;;0.37;;
13374;SDS011;6756;51.354;15.754;2023-04-24T22:21:53;0.77;;;0.40;;
13374;SDS011;6756;51.354;15.754;2023-04-24T22:26:10;1.83;;;0.47;;
13374;SDS011;6756;51.354;15.754;2023-04-24T22:30:19;0.80;;;0.37;;
13374;SDS011;6756;51.354;15.754;2023-04-24T22:39:10;1.00;;;0.40;;
13374;SDS011;6756;51.354;15.754;2023-04-24T22:43:25;0.60;;;0.50;;
13374;SDS011;6756;51.354;15.754;2023-04-24T22:47:41;0.50;;;0.50;;
13374;SDS011;6756;51.354;15.754;2023-04-24T22:51:48;0.60;;;0.47;;
13374;SDS011;6756;51.354;15.754;2023-04-24T22:56:15;4.43;;;0.80;;
13374;SDS011;6756;51.354;15.754;2023-04-24T23:04:54;1.33;;;0.60;;
13374;SDS011;6756;51.354;15.754;2023-04-24T23:09:11;0.87;;;0.70;;
13374;SDS011;6756;51.354;15.754;2023-04-24T23:13:24;0.77;;;0.77;;
13374;SDS011;6756;51.354;15.754;2023-04-24T23:17:37;1.73;;;0.80;;
13374;SDS011;6756;51.354;15.754;2023-04-24T23:21:44;0.90;;;0.80;;
13374;SDS011;6756;51.354;15.754;2023-04-24T23:26:06;0.87;;;0.87;;
13374;SDS011;6756;51.354;15.754;2023-04-24T23:30:18;1.20;;;0.90;;
13374;SDS011;6756;51.354;15.754;2023-04-24T23:34:41;1.20;;;1.10;;
13374;SDS011;6756;51.354;15.754;2023-04-24T23:49:01;2.30;;;1.20;;
13374;SDS011;6756;51.354;15.754;2023-04-24T23:53:09;1.33;;;1.23;;
13374;SDS011;6756;51.354;15.754;2023-04-24T23:57:31;1.77;;;1.30;;
